createdAt,value
2018-12-18T00:00:15.660Z,17.20
2018-12-18T00:02:45.523Z,18.30
2018-12-18T00:05:15.155Z,17.80
2018-12-18T00:07:44.458Z,19.47
2018-12-18T00:10:12.395Z,17.40
2018-12-18T00:12:40.146Z,17.37
2018-12-18T00:15:07.873Z,16.33
2018-12-18T00:17:35.553Z,17.40
2018-12-18T00:20:04.936Z,19.57
2018-12-18T00:22:32.670Z,16.93
2018-12-18T00:25:00.363Z,17.13
2018-12-18T00:27:28.262Z,16.93
2018-12-18T00:29:55.991Z,16.60
2018-12-18T00:32:23.693Z,17.80
2018-12-18T00:34:51.444Z,16.60
2018-12-18T00:37:19.245Z,15.83
2018-12-18T00:39:46.974Z,15.80
2018-12-18T00:42:14.732Z,15.53
2018-12-18T00:44:42.404Z,16.40
2018-12-18T00:47:10.877Z,16.90
2018-12-18T00:49:38.748Z,15.27
2018-12-18T00:52:06.530Z,17.17
2018-12-18T00:54:34.267Z,16.93
2018-12-18T00:57:02.040Z,16.73
2018-12-18T00:59:29.726Z,14.60
2018-12-18T01:01:59.352Z,16.83
2018-12-18T01:04:27.386Z,15.27
2018-12-18T01:06:55.359Z,14.80
2018-12-18T01:09:23.064Z,14.57
2018-12-18T01:11:50.876Z,14.73
2018-12-18T01:14:18.945Z,15.40
2018-12-18T01:16:46.767Z,14.10
2018-12-18T01:19:14.511Z,15.40
2018-12-18T01:21:42.210Z,14.33
2018-12-18T01:24:09.976Z,14.13
2018-12-18T01:26:37.911Z,15.70
2018-12-18T01:29:05.727Z,14.40
2018-12-18T01:31:33.503Z,15.30
2018-12-18T01:34:01.268Z,15.30
2018-12-18T01:36:29.156Z,15.13
2018-12-18T01:38:56.821Z,13.83
2018-12-18T01:41:24.583Z,14.80
2018-12-18T01:43:52.360Z,14.53
2018-12-18T01:46:20.185Z,14.40
2018-12-18T01:48:47.913Z,15.13
2018-12-18T01:51:15.665Z,13.53
2018-12-18T01:53:43.376Z,12.50
2018-12-18T01:56:11.112Z,13.70
2018-12-18T01:58:38.940Z,12.97
2018-12-18T02:01:06.697Z,13.70
2018-12-18T02:03:34.489Z,14.67
2018-12-18T02:06:02.409Z,14.70
2018-12-18T02:08:30.398Z,13.47
2018-12-18T02:10:58.135Z,12.87
2018-12-18T02:13:25.846Z,13.63
2018-12-18T02:15:53.712Z,13.53
2018-12-18T02:18:21.433Z,13.90
2018-12-18T02:20:49.330Z,13.43
2018-12-18T02:23:16.987Z,12.50
2018-12-18T02:25:44.654Z,12.70
2018-12-18T02:28:12.499Z,11.43
2018-12-18T02:30:40.204Z,11.60
2018-12-18T02:33:07.936Z,11.30
2018-12-18T02:35:35.625Z,10.83
2018-12-18T02:38:03.469Z,10.70
2018-12-18T02:40:31.218Z,11.67
2018-12-18T02:42:58.962Z,11.30
2018-12-18T02:45:26.742Z,9.57
2018-12-18T02:47:54.484Z,8.83
2018-12-18T02:50:22.346Z,8.43
2018-12-18T02:52:50.134Z,9.33
2018-12-18T02:55:17.887Z,9.50
2018-12-18T02:57:45.614Z,9.37
2018-12-18T03:00:13.730Z,9.87
2018-12-18T03:02:41.521Z,9.63
2018-12-18T03:05:09.271Z,10.87
2018-12-18T03:07:37.023Z,9.20
2018-12-18T03:10:05.446Z,10.13
2018-12-18T03:12:33.153Z,9.90
2018-12-18T03:15:00.916Z,9.80
2018-12-18T03:17:28.534Z,8.63
2018-12-18T03:19:56.268Z,9.33
2018-12-18T03:22:23.923Z,9.20
2018-12-18T03:24:51.632Z,9.10
2018-12-18T03:27:19.383Z,10.00
2018-12-18T03:29:47.210Z,8.30
2018-12-18T03:32:15.905Z,9.23
2018-12-18T03:34:43.703Z,9.70
2018-12-18T03:37:11.458Z,8.53
2018-12-18T03:39:39.115Z,9.93
2018-12-18T03:42:06.945Z,8.97
2018-12-18T03:44:34.693Z,9.33
2018-12-18T03:47:02.392Z,8.97
2018-12-18T03:49:30.123Z,9.60
2018-12-18T03:51:57.806Z,8.93
2018-12-18T03:54:25.536Z,9.37
2018-12-18T03:56:53.208Z,9.30
2018-12-18T03:59:20.908Z,9.40
2018-12-18T04:01:48.705Z,9.07
2018-12-18T04:04:16.439Z,9.70
2018-12-18T04:06:44.130Z,9.80
2018-12-18T04:09:11.999Z,9.73
2018-12-18T04:11:41.721Z,8.43
2018-12-18T04:14:09.423Z,9.10
2018-12-18T04:16:37.125Z,8.77
2018-12-18T04:19:04.872Z,8.57
2018-12-18T04:21:32.603Z,8.97
2018-12-18T04:24:00.469Z,9.13
2018-12-18T04:26:28.179Z,8.80
2018-12-18T04:28:55.897Z,8.27
2018-12-18T04:31:23.639Z,8.03
2018-12-18T04:33:51.310Z,8.60
2018-12-18T04:36:19.054Z,7.43
2018-12-18T04:38:46.960Z,8.80
2018-12-18T04:41:14.688Z,7.57
2018-12-18T04:43:43.343Z,8.43
2018-12-18T04:46:11.010Z,7.70
2018-12-18T04:48:39.636Z,6.23
2018-12-18T04:51:07.278Z,6.83
2018-12-18T04:53:35.003Z,7.00
2018-12-18T04:56:02.662Z,7.13
2018-12-18T04:58:30.387Z,7.50
2018-12-18T05:00:58.267Z,7.10
2018-12-18T05:03:25.964Z,6.67
2018-12-18T05:05:53.754Z,7.67
2018-12-18T05:08:22.044Z,7.90
2018-12-18T05:10:49.745Z,6.97
2018-12-18T05:13:17.422Z,6.80
2018-12-18T05:15:45.161Z,6.53
2018-12-18T05:18:12.852Z,7.03
2018-12-18T05:20:40.525Z,7.53
2018-12-18T05:23:08.319Z,7.30
2018-12-18T05:25:36.063Z,6.00
2018-12-18T05:28:04.015Z,6.53
2018-12-18T05:30:31.741Z,6.70
2018-12-18T05:32:59.473Z,7.50
2018-12-18T05:35:27.281Z,5.97
2018-12-18T05:37:54.951Z,7.30
2018-12-18T05:40:22.672Z,6.40
2018-12-18T05:42:50.399Z,7.00
2018-12-18T05:45:18.221Z,6.10
2018-12-18T05:47:45.933Z,6.73
2018-12-18T05:50:13.636Z,6.17
2018-12-18T05:52:41.417Z,6.80
2018-12-18T05:55:09.106Z,6.70
2018-12-18T05:57:36.972Z,7.33
2018-12-18T06:00:05.444Z,6.10
2018-12-18T06:02:33.259Z,6.27
2018-12-18T06:05:03.396Z,6.77
2018-12-18T06:07:30.580Z,6.13
2018-12-18T06:09:58.272Z,5.80
2018-12-18T06:12:26.316Z,6.23
2018-12-18T06:14:54.051Z,6.13
2018-12-18T06:17:22.044Z,7.17
2018-12-18T06:19:49.749Z,5.77
2018-12-18T06:22:18.108Z,6.27
2018-12-18T06:24:45.830Z,5.50
2018-12-18T06:27:13.623Z,6.40
2018-12-18T06:29:41.280Z,6.00
2018-12-18T06:32:08.984Z,6.03
2018-12-18T06:34:37.607Z,6.30
2018-12-18T06:37:05.432Z,7.10
2018-12-18T06:39:33.175Z,7.43
2018-12-18T06:42:01.103Z,6.47
2018-12-18T06:44:28.815Z,6.80
2018-12-18T06:46:56.600Z,6.60
2018-12-18T06:49:24.318Z,6.57
2018-12-18T06:51:52.091Z,6.77
2018-12-18T06:54:19.774Z,6.93
2018-12-18T06:56:47.536Z,6.63
2018-12-18T06:59:15.234Z,6.30
2018-12-18T07:01:42.944Z,6.60
2018-12-18T07:04:10.687Z,6.20
2018-12-18T07:06:38.458Z,6.43
2018-12-18T07:09:07.891Z,6.37
2018-12-18T07:11:36.310Z,6.10
2018-12-18T07:14:04.085Z,6.90
2018-12-18T07:16:31.832Z,6.63
2018-12-18T07:18:59.674Z,6.17
2018-12-18T07:21:27.499Z,5.17
2018-12-18T07:23:55.206Z,6.47
2018-12-18T07:26:22.885Z,6.70
2018-12-18T07:28:51.349Z,5.67
2018-12-18T07:31:19.048Z,7.07
2018-12-18T07:33:46.782Z,6.40
2018-12-18T07:36:14.647Z,6.10
2018-12-18T07:38:42.323Z,6.67
2018-12-18T07:41:10.091Z,6.70
2018-12-18T07:43:37.789Z,6.30
2018-12-18T07:46:05.590Z,6.03
2018-12-18T07:48:33.360Z,7.10
2018-12-18T07:51:01.794Z,6.57
2018-12-18T07:53:29.545Z,8.00
2018-12-18T07:56:00.304Z,6.30
2018-12-18T07:58:27.568Z,5.60
2018-12-18T08:00:55.248Z,5.03
2018-12-18T08:03:23.092Z,4.90
2018-12-18T08:05:50.871Z,4.83
2018-12-18T08:08:18.544Z,5.17
2018-12-18T08:10:46.292Z,4.00
2018-12-18T08:13:14.040Z,3.90
2018-12-18T08:15:41.770Z,4.40
2018-12-18T08:18:09.475Z,4.00
2018-12-18T08:20:37.175Z,4.80
2018-12-18T08:23:05.008Z,4.00
2018-12-18T08:25:33.374Z,4.40
2018-12-18T08:28:01.130Z,3.80
2018-12-18T08:30:28.857Z,4.10
2018-12-18T08:32:56.588Z,4.20
2018-12-18T08:35:24.272Z,4.60
2018-12-18T08:37:52.007Z,3.53
2018-12-18T08:40:19.893Z,4.27
2018-12-18T08:42:47.576Z,3.60
2018-12-18T08:45:15.262Z,2.77
2018-12-18T08:47:43.136Z,4.00
2018-12-18T08:50:11.092Z,3.67
2018-12-18T08:52:39.756Z,3.70
2018-12-18T08:55:14.084Z,2.90
2018-12-18T08:57:41.878Z,3.30
2018-12-18T09:00:09.811Z,3.33
2018-12-18T09:02:37.497Z,2.70
2018-12-18T09:05:05.856Z,3.10
2018-12-18T09:07:33.557Z,2.97
2018-12-18T09:10:01.736Z,2.87
2018-12-18T09:12:29.448Z,5.53
2018-12-18T09:14:57.619Z,2.87
2018-12-18T09:17:27.217Z,3.03
2018-12-18T09:19:54.876Z,2.33
2018-12-18T09:22:22.642Z,2.73
2018-12-18T09:24:50.446Z,2.80
2018-12-18T09:27:18.317Z,2.60
2018-12-18T09:29:46.038Z,3.53
2018-12-18T09:32:13.747Z,3.00
2018-12-18T09:34:41.594Z,3.17
2018-12-18T09:37:09.327Z,2.83
2018-12-18T09:39:39.000Z,2.70
2018-12-18T09:42:08.569Z,2.33
2018-12-18T09:44:36.309Z,2.60
2018-12-18T09:47:04.120Z,2.37
2018-12-18T09:49:31.840Z,2.40
2018-12-18T09:52:00.447Z,2.33
2018-12-18T09:54:28.100Z,3.10
2018-12-18T09:56:57.679Z,3.10
2018-12-18T09:59:25.391Z,3.30
2018-12-18T10:01:53.099Z,2.20
2018-12-18T10:04:20.885Z,2.40
2018-12-18T10:06:48.565Z,2.67
2018-12-18T10:09:16.317Z,2.73
2018-12-18T10:11:44.118Z,1.63
2018-12-18T10:14:11.754Z,2.60
2018-12-18T10:16:39.658Z,2.40
2018-12-18T10:19:07.530Z,2.60
2018-12-18T10:21:35.215Z,1.90
2018-12-18T10:24:03.092Z,1.77
2018-12-18T10:26:30.826Z,1.73
2018-12-18T10:28:58.579Z,1.53
2018-12-18T10:31:26.559Z,1.87
2018-12-18T10:33:54.277Z,2.03
2018-12-18T10:36:22.159Z,2.30
2018-12-18T10:38:49.888Z,2.37
2018-12-18T10:41:17.615Z,1.83
2018-12-18T10:43:45.496Z,2.47
2018-12-18T10:46:13.217Z,2.00
2018-12-18T10:48:41.038Z,1.90
2018-12-18T10:51:08.750Z,2.60
2018-12-18T10:53:36.567Z,1.87
2018-12-18T10:56:04.387Z,1.87
2018-12-18T10:58:32.073Z,2.53
2018-12-18T11:01:01.691Z,1.87
2018-12-18T11:03:29.407Z,2.20
2018-12-18T11:05:57.168Z,2.20
2018-12-18T11:08:24.882Z,1.80
2018-12-18T11:10:52.584Z,2.23
2018-12-18T11:13:20.334Z,2.20
2018-12-18T11:15:48.759Z,1.93
2018-12-18T11:18:16.743Z,2.03
2018-12-18T11:20:44.451Z,2.43
2018-12-18T11:23:12.276Z,3.00
2018-12-18T11:25:40.197Z,1.80
2018-12-18T11:28:08.018Z,2.00
2018-12-18T11:30:35.799Z,1.70
2018-12-18T11:33:03.631Z,2.37
2018-12-18T11:35:31.385Z,2.10
2018-12-18T11:37:59.230Z,1.50
2018-12-18T11:40:27.095Z,2.03
2018-12-18T11:42:54.774Z,2.03
2018-12-18T11:45:22.465Z,2.10
2018-12-18T11:47:50.190Z,1.77
2018-12-18T11:50:17.946Z,5.50
2018-12-18T11:52:45.804Z,2.37
2018-12-18T11:55:13.675Z,2.80
2018-12-18T11:57:41.401Z,1.73
2018-12-18T12:00:10.959Z,1.67
2018-12-18T12:02:42.861Z,2.43
2018-12-18T12:05:11.963Z,2.37
2018-12-18T12:07:39.701Z,2.13
2018-12-18T12:10:07.563Z,1.80
2018-12-18T12:12:35.337Z,1.77
2018-12-18T12:15:04.701Z,1.20
2018-12-18T12:17:32.823Z,2.10
2018-12-18T12:20:02.327Z,1.33
2018-12-18T12:22:30.152Z,1.70
2018-12-18T12:24:58.059Z,1.57
2018-12-18T12:27:28.503Z,1.67
2018-12-18T12:29:56.468Z,1.80
2018-12-18T12:32:24.228Z,2.43
2018-12-18T12:34:51.948Z,1.70
2018-12-18T12:37:21.188Z,1.70
2018-12-18T12:39:48.930Z,2.20
2018-12-18T12:42:16.805Z,1.67
2018-12-18T12:44:44.826Z,1.30
2018-12-18T12:47:12.737Z,3.10
2018-12-18T12:49:42.383Z,1.80
2018-12-18T12:52:10.587Z,1.80
2018-12-18T12:54:38.408Z,1.50
2018-12-18T12:57:06.219Z,2.10
2018-12-18T12:59:34.119Z,1.83
2018-12-18T13:02:01.856Z,1.60
2018-12-18T13:04:30.407Z,1.97
2018-12-18T13:06:58.265Z,2.67
2018-12-18T13:09:26.072Z,2.60
2018-12-18T13:11:54.213Z,2.77
2018-12-18T13:14:21.937Z,2.13
2018-12-18T13:16:49.631Z,1.87
2018-12-18T13:19:17.429Z,2.17
2018-12-18T13:21:45.841Z,1.90
2018-12-18T13:24:13.659Z,1.87
2018-12-18T13:26:41.531Z,1.93
2018-12-18T13:29:09.279Z,2.00
2018-12-18T13:31:37.628Z,1.30
2018-12-18T13:34:06.072Z,1.77
2018-12-18T13:36:35.540Z,1.63
2018-12-18T13:39:06.031Z,2.53
2018-12-18T13:41:33.706Z,1.40
2018-12-18T13:44:03.033Z,1.50
2018-12-18T13:46:32.575Z,1.67
2018-12-18T13:49:00.397Z,2.23
2018-12-18T13:51:28.178Z,1.83
2018-12-18T13:53:55.866Z,2.70
2018-12-18T13:56:23.667Z,2.27
2018-12-18T13:58:51.478Z,2.33
2018-12-18T14:01:19.564Z,1.90
2018-12-18T14:03:47.671Z,2.63
2018-12-18T14:06:15.380Z,1.90
2018-12-18T14:08:43.107Z,2.20
2018-12-18T14:11:10.870Z,2.47
2018-12-18T14:13:38.626Z,2.03
2018-12-18T14:16:06.460Z,2.30
2018-12-18T14:18:34.430Z,2.07
2018-12-18T14:21:02.134Z,2.30
2018-12-18T14:23:30.602Z,2.67
2018-12-18T14:25:58.407Z,2.87
2018-12-18T14:28:26.287Z,2.33
2018-12-18T14:30:54.392Z,2.20
2018-12-18T14:33:23.762Z,2.40
2018-12-18T14:35:51.572Z,2.30
2018-12-18T14:38:21.378Z,2.80
2018-12-18T14:40:49.082Z,3.10
2018-12-18T14:43:17.220Z,2.37
2018-12-18T14:45:45.224Z,3.33
2018-12-18T14:48:12.992Z,2.63
2018-12-18T14:50:40.747Z,2.97
2018-12-18T14:53:08.400Z,3.07
2018-12-18T14:55:36.189Z,3.80
2018-12-18T14:58:03.926Z,2.40
2018-12-18T15:00:32.082Z,3.00
2018-12-18T15:03:00.628Z,2.60
2018-12-18T15:05:28.486Z,2.80
2018-12-18T15:07:56.289Z,2.57
2018-12-18T15:10:24.080Z,3.07
2018-12-18T15:12:51.746Z,2.93
2018-12-18T15:15:19.720Z,2.87
2018-12-18T15:17:47.570Z,3.10
2018-12-18T15:20:15.480Z,2.87
2018-12-18T15:22:43.317Z,2.50
2018-12-18T15:25:11.128Z,2.83
2018-12-18T15:27:38.885Z,2.83
2018-12-18T15:30:07.208Z,2.23
2018-12-18T15:32:35.115Z,7.10
2018-12-18T15:35:02.952Z,3.03
2018-12-18T15:37:30.753Z,4.00
2018-12-18T15:40:00.510Z,3.90
2018-12-18T15:42:30.214Z,2.93
2018-12-18T15:44:57.994Z,5.10
2018-12-18T15:47:27.644Z,3.90
2018-12-18T15:49:57.203Z,3.60
2018-12-18T15:52:25.879Z,3.90
2018-12-18T15:54:55.554Z,2.90
2018-12-18T15:57:23.752Z,3.00
2018-12-18T15:59:51.436Z,3.60
2018-12-18T16:02:24.233Z,3.67
2018-12-18T16:04:49.754Z,3.53
2018-12-18T16:07:17.966Z,3.10
2018-12-18T16:09:45.801Z,3.53
2018-12-18T16:12:14.217Z,4.20
2018-12-18T16:14:41.997Z,3.93
2018-12-18T16:17:09.702Z,20.60
2018-12-18T16:19:37.640Z,8.83
2018-12-18T16:22:05.525Z,8.67
2018-12-18T16:24:33.481Z,5.23
2018-12-18T16:27:01.521Z,5.23
2018-12-18T16:29:29.236Z,4.43
2018-12-18T16:31:56.999Z,3.43
2018-12-18T16:34:24.811Z,3.33
2018-12-18T16:36:52.505Z,2.90
2018-12-18T16:39:20.288Z,3.80
2018-12-18T16:41:48.938Z,3.30
2018-12-18T16:44:16.802Z,3.77
2018-12-18T16:46:44.504Z,3.70
2018-12-18T16:49:12.315Z,3.50
2018-12-18T16:51:40.320Z,3.73
2018-12-18T16:54:09.306Z,3.30
2018-12-18T16:56:37.307Z,4.27
2018-12-18T16:59:05.979Z,6.47
2018-12-18T17:01:36.856Z,5.17
2018-12-18T17:04:14.612Z,5.33
2018-12-18T17:06:43.938Z,4.93
2018-12-18T17:09:11.628Z,5.17
2018-12-18T17:11:39.528Z,6.20
2018-12-18T17:14:07.886Z,7.77
2018-12-18T17:16:35.639Z,5.97
2018-12-18T17:19:03.458Z,5.33
2018-12-18T17:21:31.448Z,5.53
2018-12-18T17:23:59.911Z,5.87
2018-12-18T17:26:27.765Z,5.30
2018-12-18T17:28:55.558Z,5.70
2018-12-18T17:31:23.571Z,6.10
2018-12-18T17:33:51.230Z,6.80
2018-12-18T17:36:19.023Z,6.47
2018-12-18T17:38:46.767Z,5.30
2018-12-18T17:41:15.728Z,6.40
2018-12-18T17:43:44.084Z,5.70
2018-12-18T17:46:11.912Z,6.87
2018-12-18T17:48:40.394Z,6.00
2018-12-18T17:51:08.122Z,6.33
2018-12-18T17:53:35.944Z,7.00
2018-12-18T17:56:03.846Z,5.80
2018-12-18T17:58:31.574Z,7.03
2018-12-18T18:00:59.505Z,6.10
2018-12-18T18:03:27.302Z,7.03
2018-12-18T18:05:55.056Z,8.33
2018-12-18T18:08:22.904Z,7.30
2018-12-18T18:10:51.468Z,7.70
2018-12-18T18:13:19.175Z,8.13
2018-12-18T18:15:46.904Z,8.47
2018-12-18T18:18:14.695Z,8.50
2018-12-18T18:20:42.403Z,10.17
2018-12-18T18:23:10.189Z,7.60
2018-12-18T18:25:37.951Z,8.97
2018-12-18T18:28:05.888Z,8.37
2018-12-18T18:30:33.625Z,8.50
2018-12-18T18:33:01.418Z,8.23
2018-12-18T18:35:29.345Z,8.77
2018-12-18T18:37:57.151Z,8.87
2018-12-18T18:40:26.610Z,8.80
2018-12-18T18:42:55.419Z,9.47
2018-12-18T18:45:23.233Z,11.67
2018-12-18T18:47:51.463Z,10.43
2018-12-18T18:50:19.244Z,9.43
2018-12-18T18:52:48.006Z,11.10
2018-12-18T18:55:15.761Z,9.07
2018-12-18T18:57:43.534Z,8.57
2018-12-18T19:00:11.541Z,8.90
2018-12-18T19:02:39.301Z,8.50
2018-12-18T19:05:07.115Z,8.30
2018-12-18T19:07:35.502Z,8.30
2018-12-18T19:10:04.730Z,10.37
2018-12-18T19:12:32.498Z,7.97
2018-12-18T19:15:00.319Z,8.60
2018-12-18T19:17:31.117Z,8.03
2018-12-18T19:19:58.897Z,8.50
2018-12-18T19:22:26.765Z,7.20
2018-12-18T19:24:54.574Z,8.43
2018-12-18T19:27:22.356Z,8.17
2018-12-18T19:29:50.092Z,8.43
2018-12-18T19:32:18.658Z,8.07
2018-12-18T19:34:46.758Z,8.63
2018-12-18T19:37:14.612Z,7.93
2018-12-18T19:39:43.342Z,7.10
2018-12-18T19:42:11.953Z,7.47
2018-12-18T19:44:40.201Z,7.77
2018-12-18T19:47:07.918Z,7.13
2018-12-18T19:49:35.913Z,7.57
2018-12-18T19:52:04.579Z,7.20
2018-12-18T19:54:32.527Z,7.97
2018-12-18T19:57:00.410Z,9.50
2018-12-18T19:59:28.647Z,11.10
2018-12-18T20:01:56.603Z,7.70
2018-12-18T20:04:24.391Z,6.60
2018-12-18T20:06:52.808Z,7.60
2018-12-18T20:09:20.772Z,6.43
2018-12-18T20:11:48.643Z,5.57
2018-12-18T20:14:16.372Z,5.17
2018-12-18T20:16:44.191Z,5.80
2018-12-18T20:19:12.023Z,5.80
2018-12-18T20:21:39.810Z,5.97
2018-12-18T20:24:07.576Z,4.30
2018-12-18T20:26:35.344Z,5.27
2018-12-18T20:29:03.259Z,5.30
2018-12-18T20:31:31.370Z,4.30
2018-12-18T20:33:59.125Z,5.27
2018-12-18T20:36:27.013Z,5.60
2018-12-18T20:38:54.723Z,4.80
2018-12-18T20:41:22.638Z,7.23
2018-12-18T20:43:50.386Z,4.30
2018-12-18T20:46:18.197Z,4.33
2018-12-18T20:48:45.953Z,4.13
2018-12-18T20:51:13.705Z,4.40
2018-12-18T20:53:41.559Z,4.07
2018-12-18T20:56:09.395Z,3.97
2018-12-18T20:58:37.291Z,3.50
2018-12-18T21:01:05.044Z,3.10
2018-12-18T21:03:32.911Z,4.03
2018-12-18T21:06:00.677Z,3.43
2018-12-18T21:08:30.152Z,3.37
2018-12-18T21:10:57.870Z,3.43
2018-12-18T21:13:27.491Z,3.53
2018-12-18T21:15:55.897Z,3.97
2018-12-18T21:18:23.676Z,3.00
2018-12-18T21:20:51.405Z,3.40
2018-12-18T21:23:19.274Z,4.10
2018-12-18T21:25:47.025Z,4.10
2018-12-18T21:28:14.860Z,3.10
2018-12-18T21:30:43.103Z,3.73
2018-12-18T21:33:10.878Z,3.43
2018-12-18T21:35:38.688Z,3.10
2018-12-18T21:38:06.666Z,3.60
2018-12-18T21:40:34.514Z,3.20
2018-12-18T21:43:02.260Z,3.47
2018-12-18T21:45:30.104Z,3.47
2018-12-18T21:47:57.957Z,2.83
2018-12-18T21:50:25.824Z,3.50
2018-12-18T21:52:53.547Z,3.57
2018-12-18T21:55:21.299Z,2.77
2018-12-18T21:57:49.199Z,3.43
2018-12-18T22:00:16.917Z,2.90
2018-12-18T22:02:44.699Z,3.13
2018-12-18T22:05:12.465Z,3.10
2018-12-18T22:07:40.306Z,3.13
2018-12-18T22:10:08.114Z,3.37
2018-12-18T22:12:35.990Z,4.00
2018-12-18T22:15:04.347Z,2.83
2018-12-18T22:17:32.233Z,3.00
2018-12-18T22:20:00.001Z,2.53
2018-12-18T22:22:27.755Z,3.43
2018-12-18T22:24:55.762Z,2.80
2018-12-18T22:27:23.432Z,3.00
2018-12-18T22:29:51.246Z,2.93
2018-12-18T22:32:18.975Z,2.57
2018-12-18T22:34:46.784Z,3.10
2018-12-18T22:37:14.555Z,3.00
2018-12-18T22:39:42.387Z,2.80
2018-12-18T22:42:10.228Z,2.60
2018-12-18T22:44:37.934Z,3.07
2018-12-18T22:47:05.714Z,3.10
2018-12-18T22:49:33.443Z,3.07
2018-12-18T22:52:01.392Z,2.83
2018-12-18T22:54:29.052Z,3.13
2018-12-18T22:56:56.776Z,2.67
2018-12-18T22:59:24.542Z,2.80
2018-12-18T23:01:52.973Z,2.50
2018-12-18T23:04:20.766Z,3.13
2018-12-18T23:06:48.478Z,2.77
2018-12-18T23:09:16.925Z,2.53
2018-12-18T23:11:44.774Z,2.40
2018-12-18T23:14:12.689Z,2.10
2018-12-18T23:16:40.429Z,2.47
2018-12-18T23:19:08.292Z,2.33
2018-12-18T23:21:36.190Z,2.50
2018-12-18T23:24:03.868Z,2.27
2018-12-18T23:26:31.720Z,2.13
2018-12-18T23:28:59.392Z,2.50
2018-12-18T23:31:27.049Z,2.30
2018-12-18T23:33:54.832Z,2.77
2018-12-18T23:36:22.551Z,2.47
2018-12-18T23:38:56.718Z,2.60
2018-12-18T23:41:20.331Z,3.20
2018-12-18T23:43:47.951Z,2.57
2018-12-18T23:46:15.683Z,2.50
2018-12-18T23:48:43.455Z,2.80
2018-12-18T23:51:11.254Z,3.00
2018-12-18T23:53:39.102Z,2.63
2018-12-18T23:56:06.856Z,2.57
2018-12-18T23:58:34.650Z,2.87
